Tabiona
, Tabiona
Last Weather Update:1/30/2012 11:00:00 PM
Date
ETo
ETc
Rain
Irrigation
Req
Temp
Max
Temp
Min
Temp
Avg
Avg RH
Avg Wind
Avg Solar
inches
inches
incehs
inches
F
F
F
%
%
watts/m2
12/1/2011 0.03" 0.00" 0.00" 0.00" 30.0° 10.7° 23.3° 83.8% 5.6 MPH 147.7w/m2
12/2/2011 0.02" 0.00" 0.00" 0.00" 29.9° 7.0° 19.1° 83.2% 3.5 MPH 81.8w/m2
12/3/2011 0.03" 0.00" 0.00" 0.00" 26.9° 9.1° 19.5° 76.5% 4.9 MPH 121.6w/m2
12/4/2011 0.02" 0.00" 0.00" 0.00" 23.3° 10.1° 17.7° 70.4% 5.2 MPH 93.6w/m2
12/5/2011 0.04" 0.00" 0.00" 0.00" 24.8° F 10.2° 66.8% 4.8 MPH 173.7w/m2
12/6/2011 0.04" 0.00" 0.00" 0.00" 31.5° F 8.7° 73.8% 2.6 MPH 164.8w/m2
12/7/2011 0.04" 0.00" 0.00" 0.00" 30.4° 0.2° 13.5° 74.4% 2.8 MPH 163.0w/m2
12/8/2011 0.08" 0.00" 0.00" 0.00" 44.9° 7.7° 28.6° 53.2% 8.0 MPH 172.0w/m2
12/9/2011 0.06" 0.00" 0.00" 0.00" 38.9° 12.5° 24.0° 58.5% 4.2 MPH 165.6w/m2
12/10/2011 0.06" 0.00" 0.00" 0.00" 39.3° 9.3° 22.0° 63.5% 5.4 MPH 167.2w/m2
12/11/2011 0.05" 0.00" 0.00" 0.00" 38.7° 10.8° 21.3° 68.8% 4.9 MPH 155.7w/m2
12/12/2011 0.02" 0.00" 0.00" 0.00" 36.8° 11.6° 21.7° 75.9% 4.6 MPH 80.6w/m2
12/13/2011 0.02" 0.00" 0.13" -0.10" 36.2° 16.6° 25.2° 86.4% 2.8 MPH 73.7w/m2
12/14/2011 0.05" 0.00" 0.00" 0.00" 33.9° 8.5° 25.8° 62.4% 10.0 MPH 143.1w/m2
12/15/2011 0.03" 0.00" 0.00" 0.00" 25.4° F 15.3° 80.5% 3.5 MPH 141.3w/m2
12/16/2011 0.03" 0.00" 0.00" 0.00" 28.1° 2.7° 13.5° 82.5% 3.8 MPH 143.4w/m2
12/17/2011 0.03" 0.00" 0.00" 0.00" 30.4° F 11.6° 83.9% 2.5 MPH 145.6w/m2
12/18/2011 0.02" 0.00" 0.00" 0.00" 30.0° F 10.3° 81.8% 1.4 MPH 120.2w/m2
12/19/2011 0.04" 0.00" 0.00" 0.00" 42.0° 4.8° 16.8° 75.7% 3.2 MPH 156.3w/m2
12/20/2011 0.05" 0.00" 0.00" 0.00" 36.3° 7.5° 17.7° 75.1% 5.2 MPH 158.9w/m2
12/21/2011 0.05" 0.00" 0.00" 0.00" 31.5° 9.0° 21.9° 61.0% 11.6 MPH 139.2w/m2
12/22/2011 0.05" 0.00" 0.00" 0.00" 33.6° 4.1° 19.3° 47.4% 4.8 MPH 149.0w/m2
12/23/2011 0.04" 0.00" 0.00" 0.00" 30.2° 0.9° 14.5° 55.7% 4.6 MPH 152.6w/m2
12/24/2011 0.04" 0.00" 0.00" 0.00" 30.6° 0.7° 13.7° 67.7% 2.6 MPH 140.0w/m2
12/25/2011 0.05" 0.00" 0.00" 0.00" 35.5° 5.1° 18.3° 66.3% 3.3 MPH 156.3w/m2
12/26/2011 0.09" 0.00" 0.00" 0.00" 47.3° 8.9° 30.3° 40.5% 9.1 MPH 145.6w/m2
12/27/2011 0.08" 0.00" 0.00" 0.00" 46.4° 18.4° 30.3° 39.9% 8.6 MPH 164.1w/m2
12/28/2011 0.08" 0.00" 0.00" 0.00" 53.3° 19.7° 35.8° 53.5% 6.4 MPH 149.0w/m2
12/29/2011 0.06" 0.00" 0.01" -0.01" 47.4° 20.4° 37.0° 67.2% 8.8 MPH 143.8w/m2
12/30/2011 0.09" 0.00" 0.00" 0.00" 56.6° 22.6° 39.3° 51.5% 3.7 MPH 167.6w/m2
12/31/2011 0.07" 0.00" 0.00" 0.00" 48.4° 11.1° 26.1° 39.7% 14.1 MPH 161.5w/m2
Totals: 1.47" 0.00" 0.14" -0.11" 56.6° F 21.0° 66.7% 5.4 MPH 143.2w/m2